Zagreb — 9AA5910 — position and weather

sailwx.info

Track history (hours):
 
Tides and Currents Weather Stations Pressure Air Temp Water Temp Dewpoint Dewpoint Depression Visibility Wind Speed Wind Dir Waves Ship Positions

Zagreb

Last reported at 2015-Aug-27 23:08 UTC. Time now 2015-Aug-29 07:21 UTC.
Position N 60°10' E 027°44'.

Length 229 m; draft 8.3 m.

Type: Cargo ship. MMSI: 238249000.

Date/timePositionNaut miles runAvg speedWind from/ knotsBaromVisibWave heightAir tempDewpointWater temp
2015-Aug-27 23:08N 60°10' E 027°44'814.1
2015-Aug-27 22:33N 60°06' E 027°30'1414.1
2015-Aug-27 21:33N 59°59' E 027°05'1313.5
2015-Aug-27 20:34N 59°59' E 026°38'1814.1
2015-Aug-27 19:16N 59°55' E 026°03'6413.4
2015-Aug-27 14:31N 59°39' E 024°00'1313.6
2015-Aug-27 13:33N 59°35' E 023°36'17613.4
2015-Aug-27 00:25N 57°31' E 019°37'1613.9
2015-Aug-26 23:15N 57°18' E 019°18'1114.0
2015-Aug-26 22:29N 57°10' E 019°05'1413.9
2015-Aug-26 21:27N 56°59' E 018°48'1413.9
2015-Aug-26 20:28N 56°49' E 018°31'1413.9
2015-Aug-26 19:29N 56°40' E 018°12'9813.9
2015-Aug-26 12:29N 55°45' E 015°48'1314.2
2015-Aug-26 11:34N 55°38' E 015°27'1414.3
2015-Aug-26 10:33N 55°32' E 015°05'1414.2
2015-Aug-26 09:33N 55°25' E 014°43'1413.7
2015-Aug-26 08:33N 55°15' E 014°27'1312.7
2015-Aug-26 07:33N 55°10' E 014°06'1414.0
2015-Aug-26 06:33N 55°11' E 013°41'1413.7
2015-Aug-26 05:33N 55°11' E 013°17'1413.6
2015-Aug-26 04:34N 55°14' E 012°54'1211.9
2015-Aug-26 03:33N 55°22' E 012°39'1313.1
2015-Aug-26 02:33N 55°35' E 012°42'1211.5
2015-Aug-26 01:33N 55°47' E 012°42'1313.2
2015-Aug-26 00:33N 55°60' E 012°40'1313.3
2015-Aug-25 23:34N 56°10' E 012°24'1414.0
2015-Aug-25 22:33N 56°18' E 012°03'1413.5
2015-Aug-25 21:32N 56°31' E 011°57'1413.9
2015-Aug-25 20:34N 56°44' E 011°53'1413.8
2015-Aug-25 19:34N 56°57' E 011°44'1513.2
2015-Aug-25 18:25N 57°11' E 011°35'1113.0
2015-Aug-25 17:34N 57°22' E 011°29'1313.1
2015-Aug-25 16:33N 57°33' E 011°14'1312.8
2015-Aug-25 15:34N 57°41' E 010°56'1212.0
2015-Aug-25 14:31N 57°48' E 010°36'16712.8
2015-Aug-25 01:30N 55°50' E 007°00'1314.2
2015-Aug-25 00:34N 55°36' E 007°00'1414.3
2015-Aug-24 23:34N 55°22' E 006°60'1414.3
2015-Aug-24 22:33N 55°08' E 006°60'1414.4
2015-Aug-24 21:33N 54°54' E 007°00'1414.4
2015-Aug-24 20:33N 54°39' E 006°60'1414.2
2015-Aug-24 19:33N 54°27' E 007°12'1414.4
2015-Aug-24 18:33N 54°14' E 007°25'1413.9
2015-Aug-24 17:33N 54°07' E 007°46'1313.5
2015-Aug-24 16:34N 54°01' E 008°06'1212.3
2015-Aug-24 15:34N 53°59' E 008°26'1110.6
2015-Aug-24 14:34N 53°54' E 008°42'1212.0
2015-Aug-24 13:33N 53°52' E 009°02'1212.3
2015-Aug-24 12:33N 53°49' E 009°22'1514.6
2015-Aug-24 11:33N 53°36' E 009°35'1111.4
2015-Aug-24 10:34N 53°33' E 009°54'4 3.8
2015-Aug-24 09:32N 53°29' E 009°57'0 0.0
2015-Aug-24 08:32N 53°29' E 009°57'0 0.0
2015-Aug-24 07:32N 53°29' E 009°57'0 0.0
2015-Aug-24 06:32N 53°29' E 009°57'0 0.0
2015-Aug-24 05:31N 53°29' E 009°57'0 0.0
2015-Aug-24 04:28N 53°29' E 009°57'0 0.0
2015-Aug-24 03:31N 53°29' E 009°57'0 0.0
2015-Aug-24 02:31N 53°29' E 009°57'0 0.0
2015-Aug-24 01:32N 53°29' E 009°57'0 0.0
2015-Aug-24 00:32N 53°29' E 009°57'0 0.0
2015-Aug-23 23:31N 53°29' E 009°57'0 0.0
2015-Aug-23 22:32N 53°29' E 009°57'0 0.0
2015-Aug-23 21:19N 53°29' E 009°57'0 0.0
2015-Aug-23 20:32N 53°29' E 009°57'0 0.0
2015-Aug-23 19:31N 53°29' E 009°57'0 0.0
2015-Aug-23 18:32N 53°29' E 009°57'0 0.0
2015-Aug-23 17:32N 53°29' E 009°57'0 0.0
2015-Aug-23 16:25N 53°29' E 009°57'0 0.0
2015-Aug-23 15:32N 53°29' E 009°57'0 0.0
2015-Aug-23 14:32N 53°29' E 009°57'0 0.0
2015-Aug-23 13:31N 53°29' E 009°57'0 0.0
2015-Aug-23 12:25N 53°29' E 009°57'0 0.0
2015-Aug-23 11:32N 53°29' E 009°57'0 0.0
2015-Aug-23 10:32N 53°29' E 009°57'0 0.0
2015-Aug-23 09:25N 53°29' E 009°57'0 0.0
2015-Aug-23 08:32N 53°29' E 009°57'0 0.0
2015-Aug-23 07:31N 53°29' E 009°57'0 0.0
2015-Aug-23 06:31N 53°29' E 009°57'0 0.0
2015-Aug-23 05:31N 53°29' E 009°57'0 0.0
2015-Aug-23 04:25N 53°29' E 009°57'0 0.0
2015-Aug-23 03:32N 53°29' E 009°57'0 0.0
2015-Aug-23 02:23N 53°29' E 009°57'0 0.0
2015-Aug-23 01:31N 53°29' E 009°57'0 0.0
2015-Aug-22 23:28N 53°29' E 009°57'0 0.0
2015-Aug-22 22:25N 53°29' E 009°57'0 0.0
2015-Aug-22 21:31N 53°29' E 009°57'0 0.0
2015-Aug-22 20:32N 53°29' E 009°57'0 0.0
2015-Aug-22 19:31N 53°29' E 009°57'0 0.0
2015-Aug-22 18:32N 53°29' E 009°57'0 0.0
2015-Aug-22 17:31N 53°29' E 009°57'0 0.0
2015-Aug-22 16:25N 53°29' E 009°57'0 0.0
2015-Aug-22 15:31N 53°29' E 009°57'0 0.0
2015-Aug-22 14:32N 53°29' E 009°57'0 0.0
2015-Aug-22 13:31N 53°29' E 009°57'0 0.0
2015-Aug-22 12:31N 53°29' E 009°57'0 0.0
2015-Aug-22 11:31N 53°29' E 009°57'0 0.0
2015-Aug-22 10:22N 53°29' E 009°57'0 0.0
2015-Aug-22 09:31N 53°29' E 009°57'0 0.0
2015-Aug-22 07:31N 53°29' E 009°57'0 0.0
2015-Aug-22 06:31N 53°29' E 009°57'0 0.0
2015-Aug-22 05:31N 53°29' E 009°57'0 0.0
2015-Aug-22 04:31N 53°29' E 009°57'0 0.0
2015-Aug-22 03:25N 53°29' E 009°57'0 0.0
2015-Aug-22 02:31N 53°29' E 009°57'0 0.0
2015-Aug-22 01:31N 53°29' E 009°57'0 0.0
2015-Aug-22 00:31N 53°29' E 009°57'0 0.0
2015-Aug-21 23:31N 53°29' E 009°57'0 0.0
2015-Aug-21 22:28N 53°29' E 009°57'0 0.0
2015-Aug-21 21:31N 53°29' E 009°57'0 0.0
2015-Aug-21 20:31N 53°29' E 009°57'0 0.0
2015-Aug-21 19:31N 53°29' E 009°57'1 0.5
2015-Aug-21 18:33N 53°30' E 009°57'1 1.3
2015-Aug-21 17:34N 53°31' E 009°56'0 0.0
2015-Aug-21 16:33N 53°31' E 009°56'0 0.0
2015-Aug-21 15:10N 53°31' E 009°56'0 0.0
2015-Aug-21 14:33N 53°31' E 009°56'0 0.0
2015-Aug-21 13:24N 53°31' E 009°56'0 0.0
2015-Aug-21 12:33N 53°31' E 009°56'0 0.0
2015-Aug-21 11:33N 53°31' E 009°56'0 0.0
2015-Aug-21 10:33N 53°31' E 009°56'0 0.0
2015-Aug-21 09:33N 53°31' E 009°56'0 0.0
2015-Aug-21 08:33N 53°31' E 009°56'0 0.0
2015-Aug-21 07:30N 53°31' E 009°56'0 0.0
2015-Aug-21 06:30N 53°31' E 009°56'0 0.0
2015-Aug-21 05:30N 53°31' E 009°56'0 0.0
2015-Aug-21 04:33N 53°31' E 009°56'0 0.0
2015-Aug-21 03:30N 53°31' E 009°56'0 0.0
2015-Aug-21 02:33N 53°31' E 009°56'0 0.0
2015-Aug-21 01:33N 53°31' E 009°56'0 0.0
2015-Aug-21 00:33N 53°31' E 009°56'0 0.0
2015-Aug-20 23:33N 53°31' E 009°56'0 0.0
2015-Aug-20 22:33N 53°31' E 009°56'0 0.0
2015-Aug-20 21:27N 53°31' E 009°56'0 0.0
2015-Aug-20 20:33N 53°31' E 009°56'0 0.0
2015-Aug-20 19:30N 53°31' E 009°56'0 0.0
2015-Aug-20 18:33N 53°31' E 009°56'2 2.3
2015-Aug-20 17:33N 53°32' E 009°53'9 9.3
2015-Aug-20 16:33N 53°35' E 009°38'1111.2
2015-Aug-20 15:33N 53°44' E 009°27'1312.5
2015-Aug-20 14:33N 53°53' E 009°12'1212.4
2015-Aug-20 13:33N 53°50' E 008°52'1111.2
2015-Aug-20 12:33N 53°57' E 008°37'1312.8
2015-Aug-20 11:33N 53°60' E 008°15'1312.7
2015-Aug-20 10:33N 54°01' E 007°54'6 6.2
2015-Aug-20 09:33N 54°04' E 007°44'0 0.1
2015-Aug-20 08:32N 54°04' E 007°44'0 0.0
2015-Aug-20 07:33N 54°04' E 007°44'0 0.0
2015-Aug-20 06:32N 54°04' E 007°44'0 0.0
2015-Aug-20 05:32N 54°04' E 007°44'0 0.0
2015-Aug-20 04:33N 54°04' E 007°44'0 0.1
2015-Aug-20 03:32N 54°04' E 007°44'0 0.1
2015-Aug-20 02:32N 54°04' E 007°44'0 0.1
2015-Aug-20 01:32N 54°04' E 007°45'0 0.0
2015-Aug-20 00:33N 54°04' E 007°45'0 0.0
2015-Aug-19 23:29N 54°04' E 007°45'0 0.0
2015-Aug-19 22:33N 54°04' E 007°45'0 0.1
2015-Aug-19 21:29N 54°04' E 007°44'0 0.2
2015-Aug-19 20:33N 54°04' E 007°44'0 0.0
2015-Aug-19 19:20N 54°04' E 007°44'0 0.0
2015-Aug-19 18:32N 54°04' E 007°44'0 0.0
2015-Aug-19 17:32N 54°04' E 007°44'0 0.0
2015-Aug-19 16:32N 54°04' E 007°44'0 0.1
2015-Aug-19 15:26N 54°04' E 007°44'0 0.1
2015-Aug-19 14:26N 54°04' E 007°44'0 0.0
2015-Aug-19 13:32N 54°04' E 007°45'0 0.0
2015-Aug-19 12:29N 54°04' E 007°45'0 0.0
2015-Aug-19 11:26N 54°04' E 007°45'0 0.0
2015-Aug-19 10:32N 54°04' E 007°45'0 0.0
2015-Aug-19 09:28N 54°04' E 007°45'0 0.2
2015-Aug-19 08:28N 54°04' E 007°44'0 0.0
2015-Aug-19 07:25N 54°04' E 007°44'0 0.0
2015-Aug-19 06:31N 54°04' E 007°44'0 0.0
2015-Aug-19 05:31N 54°04' E 007°44'0 0.0
2015-Aug-19 04:28N 54°04' E 007°44'0 0.1
2015-Aug-19 03:22N 54°04' E 007°44'0 0.1
2015-Aug-19 02:25N 54°04' E 007°45'0 0.0
2015-Aug-19 01:28N 54°04' E 007°45'0 0.0
2015-Aug-19 00:28N 54°04' E 007°45'0 0.0
2015-Aug-18 23:31N 54°04' E 007°45'6 5.7
2015-Aug-18 22:33N 54°08' E 007°37'1212.2
2015-Aug-18 21:33N 54°16' E 007°21'1212.5
2015-Aug-18 20:33N 54°26' E 007°11'1212.0
2015-Aug-18 19:33N 54°37' E 007°00'1211.6
2015-Aug-18 18:33N 54°48' E 006°60'1111.3
2015-Aug-18 17:33N 54°60' E 006°60'1110.9
2015-Aug-18 16:33N 55°11' E 006°60'1110.7
2015-Aug-18 15:33N 55°21' E 006°60'1110.9
2015-Aug-18 14:33N 55°32' E 006°60'1111.2
2015-Aug-18 13:33N 55°44' E 007°00'  
Track history (hours):
 
Tides and Currents Weather Stations Pressure Air Temp Water Temp Dewpoint Dewpoint Depression Visibility Wind Speed Wind Dir Waves Ship Positions

Zagreb

Last reported at 2015-Aug-27 23:08 UTC. Time now 2015-Aug-29 07:21 UTC.
Position N 60°10' E 027°44'.

Length 229 m; draft 8.3 m.

Type: Cargo ship. MMSI: 238249000.

Date/timePositionNaut miles runAvg speedWind from/ knotsBaromVisibWave heightAir tempDewpointWater temp
2015-Aug-27 23:08N 60°10' E 027°44'814.1
2015-Aug-27 22:33N 60°06' E 027°30'1414.1
2015-Aug-27 21:33N 59°59' E 027°05'1313.5
2015-Aug-27 20:34N 59°59' E 026°38'1814.1
2015-Aug-27 19:16N 59°55' E 026°03'6413.4
2015-Aug-27 14:31N 59°39' E 024°00'1313.6
2015-Aug-27 13:33N 59°35' E 023°36'17613.4
2015-Aug-27 00:25N 57°31' E 019°37'1613.9
2015-Aug-26 23:15N 57°18' E 019°18'1114.0
2015-Aug-26 22:29N 57°10' E 019°05'1413.9
2015-Aug-26 21:27N 56°59' E 018°48'1413.9
2015-Aug-26 20:28N 56°49' E 018°31'1413.9
2015-Aug-26 19:29N 56°40' E 018°12'9813.9
2015-Aug-26 12:29N 55°45' E 015°48'1314.2
2015-Aug-26 11:34N 55°38' E 015°27'1414.3
2015-Aug-26 10:33N 55°32' E 015°05'1414.2
2015-Aug-26 09:33N 55°25' E 014°43'1413.7
2015-Aug-26 08:33N 55°15' E 014°27'1312.7
2015-Aug-26 07:33N 55°10' E 014°06'1414.0
2015-Aug-26 06:33N 55°11' E 013°41'1413.7
2015-Aug-26 05:33N 55°11' E 013°17'1413.6
2015-Aug-26 04:34N 55°14' E 012°54'1211.9
2015-Aug-26 03:33N 55°22' E 012°39'1313.1
2015-Aug-26 02:33N 55°35' E 012°42'1211.5
2015-Aug-26 01:33N 55°47' E 012°42'1313.2
2015-Aug-26 00:33N 55°60' E 012°40'1313.3
2015-Aug-25 23:34N 56°10' E 012°24'1414.0
2015-Aug-25 22:33N 56°18' E 012°03'1413.5
2015-Aug-25 21:32N 56°31' E 011°57'1413.9
2015-Aug-25 20:34N 56°44' E 011°53'1413.8
2015-Aug-25 19:34N 56°57' E 011°44'1513.2
2015-Aug-25 18:25N 57°11' E 011°35'1113.0
2015-Aug-25 17:34N 57°22' E 011°29'1313.1
2015-Aug-25 16:33N 57°33' E 011°14'1312.8
2015-Aug-25 15:34N 57°41' E 010°56'1212.0
2015-Aug-25 14:31N 57°48' E 010°36'16712.8
2015-Aug-25 01:30N 55°50' E 007°00'1314.2
2015-Aug-25 00:34N 55°36' E 007°00'1414.3
2015-Aug-24 23:34N 55°22' E 006°60'1414.3
2015-Aug-24 22:33N 55°08' E 006°60'1414.4
2015-Aug-24 21:33N 54°54' E 007°00'1414.4
2015-Aug-24 20:33N 54°39' E 006°60'1414.2
2015-Aug-24 19:33N 54°27' E 007°12'1414.4
2015-Aug-24 18:33N 54°14' E 007°25'1413.9
2015-Aug-24 17:33N 54°07' E 007°46'1313.5
2015-Aug-24 16:34N 54°01' E 008°06'1212.3
2015-Aug-24 15:34N 53°59' E 008°26'1110.6
2015-Aug-24 14:34N 53°54' E 008°42'1212.0
2015-Aug-24 13:33N 53°52' E 009°02'1212.3
2015-Aug-24 12:33N 53°49' E 009°22'1514.6
2015-Aug-24 11:33N 53°36' E 009°35'1111.4
2015-Aug-24 10:34N 53°33' E 009°54'4 3.8
2015-Aug-24 09:32N 53°29' E 009°57'0 0.0
2015-Aug-24 08:32N 53°29' E 009°57'0 0.0
2015-Aug-24 07:32N 53°29' E 009°57'0 0.0
2015-Aug-24 06:32N 53°29' E 009°57'0 0.0
2015-Aug-24 05:31N 53°29' E 009°57'0 0.0
2015-Aug-24 04:28N 53°29' E 009°57'0 0.0
2015-Aug-24 03:31N 53°29' E 009°57'0 0.0
2015-Aug-24 02:31N 53°29' E 009°57'0 0.0
2015-Aug-24 01:32N 53°29' E 009°57'0 0.0
2015-Aug-24 00:32N 53°29' E 009°57'0 0.0
2015-Aug-23 23:31N 53°29' E 009°57'0 0.0
2015-Aug-23 22:32N 53°29' E 009°57'0 0.0
2015-Aug-23 21:19N 53°29' E 009°57'0 0.0
2015-Aug-23 20:32N 53°29' E 009°57'0 0.0
2015-Aug-23 19:31N 53°29' E 009°57'0 0.0
2015-Aug-23 18:32N 53°29' E 009°57'0 0.0
2015-Aug-23 17:32N 53°29' E 009°57'0 0.0
2015-Aug-23 16:25N 53°29' E 009°57'0 0.0
2015-Aug-23 15:32N 53°29' E 009°57'0 0.0
2015-Aug-23 14:32N 53°29' E 009°57'0 0.0
2015-Aug-23 13:31N 53°29' E 009°57'0 0.0
2015-Aug-23 12:25N 53°29' E 009°57'0 0.0
2015-Aug-23 11:32N 53°29' E 009°57'0 0.0
2015-Aug-23 10:32N 53°29' E 009°57'0 0.0
2015-Aug-23 09:25N 53°29' E 009°57'0 0.0
2015-Aug-23 08:32N 53°29' E 009°57'0 0.0
2015-Aug-23 07:31N 53°29' E 009°57'0 0.0
2015-Aug-23 06:31N 53°29' E 009°57'0 0.0
2015-Aug-23 05:31N 53°29' E 009°57'0 0.0
2015-Aug-23 04:25N 53°29' E 009°57'0 0.0
2015-Aug-23 03:32N 53°29' E 009°57'0 0.0
2015-Aug-23 02:23N 53°29' E 009°57'0 0.0
2015-Aug-23 01:31N 53°29' E 009°57'0 0.0
2015-Aug-22 23:28N 53°29' E 009°57'0 0.0
2015-Aug-22 22:25N 53°29' E 009°57'0 0.0
2015-Aug-22 21:31N 53°29' E 009°57'0 0.0
2015-Aug-22 20:32N 53°29' E 009°57'0 0.0
2015-Aug-22 19:31N 53°29' E 009°57'0 0.0
2015-Aug-22 18:32N 53°29' E 009°57'0 0.0
2015-Aug-22 17:31N 53°29' E 009°57'0 0.0
2015-Aug-22 16:25N 53°29' E 009°57'0 0.0
2015-Aug-22 15:31N 53°29' E 009°57'0 0.0
2015-Aug-22 14:32N 53°29' E 009°57'0 0.0
2015-Aug-22 13:31N 53°29' E 009°57'0 0.0
2015-Aug-22 12:31N 53°29' E 009°57'0 0.0
2015-Aug-22 11:31N 53°29' E 009°57'0 0.0
2015-Aug-22 10:22N 53°29' E 009°57'0 0.0
2015-Aug-22 09:31N 53°29' E 009°57'0 0.0
2015-Aug-22 07:31N 53°29' E 009°57'0 0.0
2015-Aug-22 06:31N 53°29' E 009°57'0 0.0
2015-Aug-22 05:31N 53°29' E 009°57'0 0.0
2015-Aug-22 04:31N 53°29' E 009°57'0 0.0
2015-Aug-22 03:25N 53°29' E 009°57'0 0.0
2015-Aug-22 02:31N 53°29' E 009°57'0 0.0
2015-Aug-22 01:31N 53°29' E 009°57'0 0.0
2015-Aug-22 00:31N 53°29' E 009°57'0 0.0
2015-Aug-21 23:31N 53°29' E 009°57'0 0.0
2015-Aug-21 22:28N 53°29' E 009°57'0 0.0
2015-Aug-21 21:31N 53°29' E 009°57'0 0.0
2015-Aug-21 20:31N 53°29' E 009°57'0 0.0
2015-Aug-21 19:31N 53°29' E 009°57'1 0.5
2015-Aug-21 18:33N 53°30' E 009°57'1 1.3
2015-Aug-21 17:34N 53°31' E 009°56'0 0.0
2015-Aug-21 16:33N 53°31' E 009°56'0 0.0
2015-Aug-21 15:10N 53°31' E 009°56'0 0.0
2015-Aug-21 14:33N 53°31' E 009°56'0 0.0
2015-Aug-21 13:24N 53°31' E 009°56'0 0.0
2015-Aug-21 12:33N 53°31' E 009°56'0 0.0
2015-Aug-21 11:33N 53°31' E 009°56'0 0.0
2015-Aug-21 10:33N 53°31' E 009°56'0 0.0
2015-Aug-21 09:33N 53°31' E 009°56'0 0.0
2015-Aug-21 08:33N 53°31' E 009°56'0 0.0
2015-Aug-21 07:30N 53°31' E 009°56'0 0.0
2015-Aug-21 06:30N 53°31' E 009°56'0 0.0
2015-Aug-21 05:30N 53°31' E 009°56'0 0.0
2015-Aug-21 04:33N 53°31' E 009°56'0 0.0
2015-Aug-21 03:30N 53°31' E 009°56'0 0.0
2015-Aug-21 02:33N 53°31' E 009°56'0 0.0
2015-Aug-21 01:33N 53°31' E 009°56'0 0.0
2015-Aug-21 00:33N 53°31' E 009°56'0 0.0
2015-Aug-20 23:33N 53°31' E 009°56'0 0.0
2015-Aug-20 22:33N 53°31' E 009°56'0 0.0
2015-Aug-20 21:27N 53°31' E 009°56'0 0.0
2015-Aug-20 20:33N 53°31' E 009°56'0 0.0
2015-Aug-20 19:30N 53°31' E 009°56'0 0.0
2015-Aug-20 18:33N 53°31' E 009°56'2 2.3
2015-Aug-20 17:33N 53°32' E 009°53'9 9.3
2015-Aug-20 16:33N 53°35' E 009°38'1111.2
2015-Aug-20 15:33N 53°44' E 009°27'1312.5
2015-Aug-20 14:33N 53°53' E 009°12'1212.4
2015-Aug-20 13:33N 53°50' E 008°52'1111.2
2015-Aug-20 12:33N 53°57' E 008°37'1312.8
2015-Aug-20 11:33N 53°60' E 008°15'1312.7
2015-Aug-20 10:33N 54°01' E 007°54'6 6.2
2015-Aug-20 09:33N 54°04' E 007°44'0 0.1
2015-Aug-20 08:32N 54°04' E 007°44'0 0.0
2015-Aug-20 07:33N 54°04' E 007°44'0 0.0
2015-Aug-20 06:32N 54°04' E 007°44'0 0.0
2015-Aug-20 05:32N 54°04' E 007°44'0 0.0
2015-Aug-20 04:33N 54°04' E 007°44'0 0.1
2015-Aug-20 03:32N 54°04' E 007°44'0 0.1
2015-Aug-20 02:32N 54°04' E 007°44'0 0.1
2015-Aug-20 01:32N 54°04' E 007°45'0 0.0
2015-Aug-20 00:33N 54°04' E 007°45'0 0.0
2015-Aug-19 23:29N 54°04' E 007°45'0 0.0
2015-Aug-19 22:33N 54°04' E 007°45'0 0.1
2015-Aug-19 21:29N 54°04' E 007°44'0 0.2
2015-Aug-19 20:33N 54°04' E 007°44'0 0.0
2015-Aug-19 19:20N 54°04' E 007°44'0 0.0
2015-Aug-19 18:32N 54°04' E 007°44'0 0.0
2015-Aug-19 17:32N 54°04' E 007°44'0 0.0
2015-Aug-19 16:32N 54°04' E 007°44'0 0.1
2015-Aug-19 15:26N 54°04' E 007°44'0 0.1
2015-Aug-19 14:26N 54°04' E 007°44'0 0.0
2015-Aug-19 13:32N 54°04' E 007°45'0 0.0
2015-Aug-19 12:29N 54°04' E 007°45'0 0.0
2015-Aug-19 11:26N 54°04' E 007°45'0 0.0
2015-Aug-19 10:32N 54°04' E 007°45'0 0.0
2015-Aug-19 09:28N 54°04' E 007°45'0 0.2
2015-Aug-19 08:28N 54°04' E 007°44'0 0.0
2015-Aug-19 07:25N 54°04' E 007°44'0 0.0
2015-Aug-19 06:31N 54°04' E 007°44'0 0.0
2015-Aug-19 05:31N 54°04' E 007°44'0 0.0
2015-Aug-19 04:28N 54°04' E 007°44'0 0.1
2015-Aug-19 03:22N 54°04' E 007°44'0 0.1
2015-Aug-19 02:25N 54°04' E 007°45'0 0.0
2015-Aug-19 01:28N 54°04' E 007°45'0 0.0
2015-Aug-19 00:28N 54°04' E 007°45'0 0.0
2015-Aug-18 23:31N 54°04' E 007°45'6 5.7
2015-Aug-18 22:33N 54°08' E 007°37'1212.2
2015-Aug-18 21:33N 54°16' E 007°21'1212.5
2015-Aug-18 20:33N 54°26' E 007°11'1212.0
2015-Aug-18 19:33N 54°37' E 007°00'1211.6
2015-Aug-18 18:33N 54°48' E 006°60'1111.3
2015-Aug-18 17:33N 54°60' E 006°60'1110.9
2015-Aug-18 16:33N 55°11' E 006°60'1110.7
2015-Aug-18 15:33N 55°21' E 006°60'1110.9
2015-Aug-18 14:33N 55°32' E 006°60'1111.2
2015-Aug-18 13:33N 55°44' E 007°00'  

Dump ship's entire track history